Time;durP1;ratioP1;P1;durP2;ratioP2;P2;SDS_P1;SDS_P2;PMS_P1;PMS_P2;Temp;Humidity;BMP_temperature;BMP_pressure;BME280_temperature;BME280_humidity;BME280_pressure;Samples;Min_cycle;Max_cycle;Signal;HPM_P1;HPM_P2
2022/08/18 00:02:11;;;;;;;5.90;5.25;;;;;;;22.79;65.10;99356.50;4995266;22;20160;-89
2022/08/18 00:04:37;;;;;;;6.90;5.60;;;;;;;22.74;65.50;99354.53;4998450;28;20057;-89
2022/08/18 00:07:18;;;;;;;6.22;5.43;;;;;;;22.72;65.67;99362.78;4988481;28;20046;-89
2022/08/18 00:09:43;;;;;;;7.63;5.20;;;;;;;22.69;65.83;99349.72;4969893;28;20412;-88
2022/08/18 00:12:18;;;;;;;6.63;5.70;;;;;;;22.64;66.36;99351.31;4980469;28;20046;-89
2022/08/18 00:14:45;;;;;;;6.75;5.78;;;;;;;22.60;67.14;99341.63;4980052;28;20497;-89
2022/08/18 00:17:11;;;;;;;7.63;6.05;;;;;;;22.55;67.14;99339.63;4988996;28;20049;-89
2022/08/18 00:19:37;;;;;;;6.47;5.50;;;;;;;22.50;67.70;99332.00;4989198;28;20428;-82
2022/08/18 00:22:02;;;;;;;7.93;5.95;;;;;;;22.51;67.62;99327.88;4989569;28;20046;-82
2022/08/18 00:24:29;;;;;;;7.82;5.93;;;;;;;22.40;68.26;99325.22;4988223;28;20026;-82
2022/08/18 00:26:56;;;;;;;7.93;6.07;;;;;;;22.44;68.04;99337.75;4982826;28;20038;-82
2022/08/18 00:29:22;;;;;;;8.50;5.28;;;;;;;22.45;67.59;99346.97;4990089;28;20046;-82
2022/08/18 00:31:48;;;;;;;8.73;5.75;;;;;;;22.43;68.58;99360.88;4989934;28;20050;-82
2022/08/18 00:34:13;;;;;;;7.85;5.75;;;;;;;22.34;69.42;99370.50;4988528;28;20035;-82
2022/08/18 00:36:40;;;;;;;7.05;5.97;;;;;;;22.31;69.38;99378.00;4989241;28;20500;-82
2022/08/18 00:39:05;;;;;;;7.38;6.03;;;;;;;22.27;68.31;99359.81;4989708;28;20400;-89
2022/08/18 00:41:31;;;;;;;6.55;5.82;;;;;;;22.23;69.37;99371.41;4988969;28;20042;-88
2022/08/18 00:43:59;;;;;;;7.55;5.50;;;;;;;22.21;69.26;99379.66;4986092;28;20053;-89
2022/08/18 00:46:32;;;;;;;6.80;5.93;;;;;;;22.23;68.99;99370.66;4990184;28;20593;-89
2022/08/18 00:48:58;;;;;;;8.82;6.28;;;;;;;22.21;69.02;99382.47;4985592;28;20043;-89
2022/08/18 00:51:27;;;;;;;6.07;5.47;;;;;;;22.17;69.29;99370.72;4980454;28;20496;-89
2022/08/18 00:54:07;;;;;;;6.28;5.30;;;;;;;22.19;68.49;99370.94;4981096;28;20055;-89
2022/08/18 00:56:42;;;;;;;6.65;5.65;;;;;;;22.12;68.97;99359.50;4986061;28;20053;-89
2022/08/18 00:59:30;;;;;;;8.10;6.18;;;;;;;22.04;70.53;99359.31;4987706;28;20091;-81
2022/08/18 01:02:02;;;;;;;8.50;6.25;;;;;;;21.96;71.52;99364.03;5166205;23;20062;-84
2022/08/18 01:44:10;;;;;;;8.15;6.00;;;;;;;21.35;79.13;99328.75;4386948;22;20054;-80
2022/08/18 01:46:38;;;;;;;6.78;6.05;;;;;;;21.36;78.44;99323.88;5002095;28;20041;-79
2022/08/18 01:49:04;;;;;;;8.32;6.20;;;;;;;21.34;77.36;99324.44;4996564;28;20176;-80
2022/08/18 01:51:31;;;;;;;7.72;5.72;;;;;;;21.33;76.85;99324.94;4995122;28;20054;-79
2022/08/18 01:53:58;;;;;;;7.85;6.00;;;;;;;21.34;76.25;99315.97;5007154;28;20041;-79
2022/08/18 01:56:26;;;;;;;9.00;6.20;;;;;;;21.36;76.22;99333.13;5009891;28;20038;-79
2022/08/18 01:58:52;;;;;;;9.68;6.50;;;;;;;21.32;76.87;99329.81;5013408;28;20038;-79
2022/08/18 02:01:18;;;;;;;7.32;6.40;;;;;;;21.28;77.06;99339.84;4995502;28;20049;-80
2022/08/18 02:03:47;;;;;;;9.52;6.85;;;;;;;20.65;81.11;99351.38;4998456;28;20684;-80
2022/08/18 02:06:15;;;;;;;10.85;6.55;;;;;;;20.51;82.69;99329.94;4976565;28;20037;-80
2022/08/18 02:08:41;;;;;;;7.32;6.60;;;;;;;20.52;82.03;99323.03;4976695;28;20038;-80
2022/08/18 02:11:07;;;;;;;7.68;6.50;;;;;;;20.53;82.09;99341.47;4993020;28;20092;-80
2022/08/18 02:13:33;;;;;;;7.50;6.70;;;;;;;20.48;82.71;99335.34;4991905;28;20081;-80
2022/08/18 02:15:59;;;;;;;7.97;6.70;;;;;;;20.56;81.12;99346.06;4983863;28;20905;-81
2022/08/18 02:18:29;;;;;;;7.40;6.70;;;;;;;20.58;81.04;99346.31;5000898;28;20046;-80
2022/08/18 02:20:56;;;;;;;7.57;6.80;;;;;;;20.48;83.09;99337.41;4976919;28;20057;-80
2022/08/18 02:23:22;;;;;;;8.25;6.38;;;;;;;20.53;81.82;99349.94;4992948;28;20121;-80
2022/08/18 02:25:48;;;;;;;7.85;6.60;;;;;;;20.56;81.25;99348.88;4993624;28;20454;-80
2022/08/18 02:28:13;;;;;;;9.77;6.65;;;;;;;20.62;80.60;99335.53;4994495;28;20038;-80
2022/08/18 02:30:39;;;;;;;7.50;6.65;;;;;;;20.55;82.34;99341.72;4992316;28;20050;-80
2022/08/18 02:33:09;;;;;;;9.93;6.63;;;;;;;20.45;82.56;99330.00;5000300;28;20097;-80
2022/08/18 02:35:36;;;;;;;8.40;6.20;;;;;;;20.41;82.24;99330.28;4992832;28;20185;-80
2022/08/18 02:38:04;;;;;;;8.40;6.75;;;;;;;20.42;83.41;99323.34;4992863;28;20492;-88
2022/08/18 02:40:32;;;;;;;9.85;6.28;;;;;;;20.42;82.38;99316.97;4995021;28;20432;-89
2022/08/18 02:42:58;;;;;;;10.63;6.55;;;;;;;20.42;83.03;99331.78;5005013;28;20751;-88
2022/08/18 02:45:24;;;;;;;7.63;6.30;;;;;;;20.42;81.97;99322.59;4991765;28;20187;-88
2022/08/18 02:47:53;;;;;;;7.93;6.45;;;;;;;20.36;82.99;99319.81;4993283;28;20046;-88
2022/08/18 02:50:19;;;;;;;7.15;6.45;;;;;;;20.34;83.27;99333.63;4992258;28;20038;-88
2022/08/18 02:52:44;;;;;;;9.27;7.40;;;;;;;20.05;86.77;99339.94;4995923;28;20193;-88
2022/08/18 02:55:10;;;;;;;7.10;6.40;;;;;;;20.02;86.37;99329.69;4990265;28;20105;-88
2022/08/18 02:57:41;;;;;;;7.13;6.47;;;;;;;20.09;86.25;99329.16;5000196;28;20057;-88
2022/08/18 03:00:09;;;;;;;9.23;7.13;;;;;;;19.97;87.28;99328.44;4992724;28;20056;-88
2022/08/18 03:02:35;;;;;;;8.57;6.55;;;;;;;19.95;87.56;99335.88;4992913;28;20042;-88
2022/08/18 03:05:00;;;;;;;8.43;7.22;;;;;;;19.76;88.81;99318.81;4992441;28;20397;-87
2022/08/18 03:07:26;;;;;;;8.95;6.97;;;;;;;19.74;89.12;99320.59;4985642;28;20043;-88
2022/08/18 03:09:51;;;;;;;8.40;7.30;;;;;;;19.54;91.15;99321.69;4999638;28;20043;-88
2022/08/18 03:12:17;;;;;;;7.50;6.75;;;;;;;19.62;90.43;99319.09;4987549;28;20491;-91
2022/08/18 03:14:42;;;;;;;7.80;7.05;;;;;;;19.67;89.91;99307.06;4993508;28;20054;-87
2022/08/18 03:17:08;;;;;;;9.30;7.22;;;;;;;19.80;88.49;99326.97;4993381;28;20085;-88
2022/08/18 03:19:34;;;;;;;9.45;7.40;;;;;;;19.80;88.75;99324.16;4992276;28;20733;-89
2022/08/18 03:22:00;;;;;;;8.48;6.82;;;;;;;19.85;87.82;99321.34;4988873;28;20349;-88
2022/08/18 03:24:26;;;;;;;9.07;6.95;;;;;;;19.88;88.03;99330.78;4992152;28;20764;-88
2022/08/18 03:26:54;;;;;;;8.23;7.15;;;;;;;19.89;87.68;99324.66;5003550;28;20042;-87
2022/08/18 03:29:20;;;;;;;7.65;6.85;;;;;;;19.91;87.35;99326.94;4980718;28;20451;-89
2022/08/18 03:31:47;;;;;;;8.48;6.97;;;;;;;19.97;86.86;99319.25;4994695;28;20092;-88
2022/08/18 03:34:13;;;;;;;7.43;6.13;;;;;;;19.95;87.09;99331.00;4991851;28;20046;-87
2022/08/18 03:36:40;;;;;;;8.48;7.47;;;;;;;19.87;89.69;99335.63;4993085;28;20041;-86
2022/08/18 03:39:11;;;;;;;11.43;7.18;;;;;;;19.79;90.44;99328.25;4990114;28;20077;-88
2022/08/18 03:41:38;;;;;;;9.02;7.32;;;;;;;19.78;89.47;99327.47;4973934;28;20053;-88
2022/08/18 03:44:05;;;;;;;8.45;6.70;;;;;;;19.83;88.45;99317.50;4988406;28;20447;-88
2022/08/18 03:46:30;;;;;;;7.97;7.18;;;;;;;19.78;88.74;99321.09;4991613;28;20049;-89
2022/08/18 03:48:57;;;;;;;8.60;6.97;;;;;;;19.83;88.80;99323.13;5004929;28;20066;-89
2022/08/18 03:51:25;;;;;;;13.85;6.90;;;;;;;19.86;87.97;99330.53;4990225;28;20117;-89
2022/08/18 03:53:57;;;;;;;10.60;6.95;;;;;;;19.94;87.79;99342.78;4989960;28;20065;-80
2022/08/18 03:56:36;;;;;;;10.13;7.07;;;;;;;19.99;88.07;99342.00;4988477;28;20550;-80
2022/08/18 03:59:06;;;;;;;10.02;7.00;;;;;;;20.00;88.05;99338.66;4995671;28;20034;-80
2022/08/18 04:01:34;;;;;;;10.82;7.30;;;;;;;20.02;87.41;99347.34;4989980;28;20042;-80
2022/08/18 04:04:03;;;;;;;9.48;6.88;;;;;;;20.08;86.95;99355.00;4991703;28;20069;-80
2022/08/18 04:06:45;;;;;;;8.55;6.80;;;;;;;19.97;89.72;99350.19;4991831;28;20030;-79
2022/08/18 04:09:12;;;;;;;8.60;7.07;;;;;;;20.01;88.65;99351.47;4977944;28;20105;-79
2022/08/18 04:11:41;;;;;;;11.85;7.40;;;;;;;19.99;89.51;99353.25;4990278;28;20039;-79
2022/08/18 04:14:08;;;;;;;7.78;6.97;;;;;;;19.97;89.11;99350.19;4988935;28;20046;-79
2022/08/18 04:16:35;;;;;;;9.40;7.32;;;;;;;19.97;88.31;99345.34;4992166;28;20039;-79
2022/08/18 04:19:03;;;;;;;8.23;7.30;;;;;;;19.99;89.77;99342.00;4977919;28;20047;-80
2022/08/18 04:21:31;;;;;;;8.75;7.65;;;;;;;19.86;90.40;99350.22;4995546;28;20418;-81
2022/08/18 04:24:03;;;;;;;10.13;7.40;;;;;;;19.93;88.67;99346.88;4990938;28;20121;-80
2022/08/18 04:26:34;;;;;;;9.02;7.40;;;;;;;19.95;89.03;99352.75;4991676;28;20392;-80
2022/08/18 04:29:00;;;;;;;8.70;7.85;;;;;;;19.94;90.04;99351.22;4990852;28;20046;-80
2022/08/18 04:31:27;;;;;;;12.07;7.93;;;;;;;19.95;89.76;99347.13;5005069;28;20072;-80
2022/08/18 04:33:55;;;;;;;8.15;7.32;;;;;;;20.02;89.30;99347.34;4990899;28;20045;-79
2022/08/18 04:36:20;;;;;;;8.23;6.90;;;;;;;19.95;89.92;99335.88;4988889;28;20070;-80
2022/08/18 04:38:46;;;;;;;8.52;7.30;;;;;;;20.08;89.98;99347.31;4987601;28;20456;-79
2022/08/18 04:41:12;;;;;;;8.70;7.30;;;;;;;20.11;88.43;99349.09;5007100;28;20378;-80
2022/08/18 04:43:39;;;;;;;7.85;7.05;;;;;;;20.21;87.70;99353.16;4982719;28;20073;-80
2022/08/18 04:46:05;;;;;;;14.43;7.78;;;;;;;20.21;89.37;99358.03;4986429;28;20050;-80
2022/08/18 04:48:37;;;;;;;9.75;7.28;;;;;;;20.19;89.47;99361.34;4990976;28;20523;-80
2022/08/18 04:51:11;;;;;;;15.52;8.23;;;;;;;20.19;89.13;99355.72;4978906;28;20133;-79
2022/08/18 04:53:43;;;;;;;9.43;7.65;;;;;;;20.23;89.12;99361.84;4970556;28;20050;-80
2022/08/18 04:56:16;;;;;;;8.67;7.23;;;;;;;20.26;88.82;99354.41;4989235;28;20073;-80
2022/08/18 04:58:41;;;;;;;9.40;7.70;;;;;;;20.35;87.73;99352.06;4989131;28;20041;-80
2022/08/18 05:01:08;;;;;;;10.75;7.40;;;;;;;20.39;89.21;99357.44;4989017;28;20050;-81
2022/08/18 05:03:35;;;;;;;9.38;7.55;;;;;;;20.52;89.25;99370.94;4995102;28;20042;-80
2022/08/18 05:06:03;;;;;;;10.10;7.63;;;;;;;20.61;88.56;99367.81;4988012;28;20043;-79
2022/08/18 05:08:29;;;;;;;9.82;7.28;;;;;;;20.72;87.60;99373.38;4989704;28;20034;-80
2022/08/18 05:10:56;;;;;;;11.70;8.30;;;;;;;20.83;86.96;99376.09;4986830;28;20069;-80
2022/08/18 05:13:24;;;;;;;10.50;7.22;;;;;;;20.93;86.68;99377.31;4989446;28;20057;-80
2022/08/18 05:15:55;;;;;;;9.93;7.55;;;;;;;21.06;85.46;99380.28;5011252;28;20472;-80
2022/08/18 05:18:23;;;;;;;9.40;7.07;;;;;;;21.13;84.89;99382.56;4995961;28;20050;-80
2022/08/18 05:20:52;;;;;;;8.90;7.57;;;;;;;21.24;84.32;99376.81;5011192;28;20049;-80
2022/08/18 05:23:21;;;;;;;9.48;7.57;;;;;;;21.30;83.31;99366.28;4993715;28;20407;-80
2022/08/18 05:25:47;;;;;;;9.90;7.55;;;;;;;21.60;82.80;99380.31;4995673;28;20534;-80
2022/08/18 05:28:13;;;;;;;9.30;7.32;;;;;;;21.69;81.27;99385.63;5000611;28;20035;-80
2022/08/18 05:30:40;;;;;;;11.75;7.40;;;;;;;21.76;80.48;99372.97;5007970;28;20042;-80
2022/08/18 05:33:10;;;;;;;11.95;7.40;;;;;;;22.02;79.98;99369.63;4995123;28;20046;-79
2022/08/18 05:35:41;;;;;;;9.20;7.50;;;;;;;22.20;78.97;99354.78;4995777;28;20042;-80
2022/08/18 05:38:10;;;;;;;11.13;7.20;;;;;;;22.48;77.94;99374.16;4995001;28;20050;-81
2022/08/18 05:40:36;;;;;;;10.02;7.35;;;;;;;22.54;76.86;99355.06;4995254;28;20124;-81
2022/08/18 05:43:03;;;;;;;9.13;7.43;;;;;;;22.47;76.86;99345.16;4995521;28;20517;-81
2022/08/18 05:45:28;;;;;;;10.43;7.63;;;;;;;22.63;76.39;99352.63;4979754;28;20046;-79
2022/08/18 05:48:01;;;;;;;8.57;7.15;;;;;;;22.80;75.66;99343.13;4987866;28;20050;-88
2022/08/18 05:50:27;;;;;;;10.95;7.70;;;;;;;22.96;75.14;99337.22;4995305;28;20034;-80
2022/08/18 05:52:58;;;;;;;9.98;7.53;;;;;;;23.02;74.77;99342.75;4996386;28;20042;-80
2022/08/18 05:58:21;;;;;;;10.27;7.43;;;;;;;23.36;73.75;99340.13;4981321;28;20097;-79
2022/08/18 06:00:52;;;;;;;10.13;7.32;;;;;;;23.61;72.77;99353.59;4997382;28;20068;-82
2022/08/18 06:03:31;;;;;;;10.45;7.85;;;;;;;23.63;72.76;99355.84;5002966;28;20042;-79
2022/08/18 06:06:00;;;;;;;10.57;7.90;;;;;;;23.72;72.55;99369.59;4979564;28;20046;-81
2022/08/18 06:08:36;;;;;;;12.93;7.85;;;;;;;23.76;72.34;99367.19;4964408;28;20034;-81
2022/08/18 06:11:02;;;;;;;12.98;7.60;;;;;;;23.98;71.37;99368.84;5011383;28;20049;-81
2022/08/18 06:13:29;;;;;;;9.45;7.63;;;;;;;24.04;71.40;99358.13;4993994;28;20042;-81
2022/08/18 06:16:18;;;;;;;11.23;7.72;;;;;;;24.04;71.71;99370.22;5011385;28;20043;-81
2022/08/18 06:19:17;;;;;;;11.75;8.30;;;;;;;24.10;72.13;99368.03;4995880;28;20045;-81
2022/08/18 06:22:08;;;;;;;11.73;7.47;;;;;;;24.56;69.22;99365.78;4994708;28;20094;-81
2022/08/18 06:24:38;;;;;;;12.38;8.15;;;;;;;24.90;68.80;99363.75;5009391;28;20089;-81
2022/08/18 06:27:42;;;;;;;10.75;7.38;;;;;;;25.22;67.13;99374.81;4959790;28;20550;-79
2022/08/18 06:30:10;;;;;;;10.43;7.75;;;;;;;25.36;65.88;99381.16;4972417;28;20203;-81
2022/08/18 06:33:09;;;;;;;11.50;8.05;;;;;;;25.20;66.24;99388.03;4993996;28;20046;-81
2022/08/18 06:35:40;;;;;;;9.32;7.47;;;;;;;25.00;67.80;99375.34;4976752;28;20061;-81
2022/08/18 06:38:39;;;;;;;10.18;7.45;;;;;;;25.36;66.15;99396.13;4976028;28;20495;-80
2022/08/18 06:41:42;;;;;;;10.30;7.32;;;;;;;25.55;66.12;99381.75;5007917;28;20058;-80
2022/08/18 06:44:16;;;;;;;10.70;7.38;;;;;;;25.77;65.97;99388.88;4993330;28;20192;-81
2022/08/18 06:46:48;;;;;;;12.93;7.40;;;;;;;25.71;65.45;99391.91;4976577;28;20117;-81
2022/08/18 06:49:39;;;;;;;10.07;6.97;;;;;;;25.89;66.54;99395.78;4976432;28;20045;-81
2022/08/18 06:52:38;;;;;;;10.48;6.95;;;;;;;26.28;64.40;99371.97;5008342;28;20050;-81
2022/08/18 06:55:15;;;;;;;11.05;6.93;;;;;;;26.39;63.58;99369.56;4964912;28;20072;-81
2022/08/18 06:58:04;;;;;;;10.27;7.30;;;;;;;26.64;63.25;99369.06;5008672;28;20412;-80
2022/08/18 07:00:33;;;;;;;11.85;7.75;;;;;;;26.47;63.79;99360.28;4972439;28;20055;-81
2022/08/18 07:03:19;;;;;;;9.65;7.25;;;;;;;26.71;63.29;99386.16;4989038;28;20043;-81
2022/08/18 07:06:17;;;;;;;11.55;7.60;;;;;;;26.70;62.36;99386.72;4973050;28;20072;-80
2022/08/18 07:08:44;;;;;;;11.68;7.22;;;;;;;26.50;62.91;99391.19;4987332;28;20043;-81
2022/08/18 07:11:11;;;;;;;7.32;6.50;;;;;;;26.76;62.30;99399.44;5005631;28;20042;-81
2022/08/18 07:13:39;;;;;;;33.40;8.73;;;;;;;26.70;61.55;99398.09;4991860;28;20042;-80
2022/08/18 07:16:30;;;;;;;16.42;7.88;;;;;;;26.78;60.79;99410.25;4974142;28;20038;-80
2022/08/18 07:19:07;;;;;;;11.35;7.63;;;;;;;26.88;60.25;99419.81;4991653;28;20393;-80
2022/08/18 07:21:36;;;;;;;13.63;7.32;;;;;;;27.03;60.70;99414.13;4991845;28;20042;-81
2022/08/18 07:24:08;;;;;;;8.90;7.40;;;;;;;27.37;60.32;99416.66;4990803;28;20054;-80
2022/08/18 07:27:01;;;;;;;13.55;7.53;;;;;;;27.61;58.19;99418.97;5006523;28;20046;-80
2022/08/18 07:29:28;;;;;;;16.85;7.25;;;;;;;27.63;58.04;99424.84;4988901;28;20129;-81
2022/08/18 07:31:55;;;;;;;12.70;7.22;;;;;;;27.51;56.95;99417.25;4970775;28;20035;-81
2022/08/18 07:34:32;;;;;;;11.43;6.78;;;;;;;27.88;56.26;99422.16;4973919;28;20526;-82
2022/08/18 07:37:04;;;;;;;9.13;6.50;;;;;;;28.42;54.03;99411.41;4974222;28;20504;-81
2022/08/18 07:39:36;;;;;;;12.43;7.35;;;;;;;28.49;55.26;99410.63;4990335;28;20455;-82
2022/08/18 07:42:39;;;;;;;12.23;7.80;;;;;;;28.70;54.39;99403.34;4973875;28;20093;-88
2022/08/18 07:45:41;;;;;;;10.73;8.68;;;;;;;28.71;55.60;99409.81;4989400;28;20405;-87
2022/08/18 07:48:24;;;;;;;10.40;8.70;;;;;;;28.95;54.57;99399.78;4968172;28;20125;-87
2022/08/18 07:51:09;;;;;;;11.98;8.68;;;;;;;28.97;54.34;99392.13;4997651;28;20438;-89
2022/08/18 07:53:50;;;;;;;11.82;8.15;;;;;;;29.19;53.50;99401.91;4989638;28;20038;-88
2022/08/18 07:56:21;;;;;;;13.00;7.68;;;;;;;29.33;53.74;99399.53;5007649;28;20054;-89
2022/08/18 07:59:03;;;;;;;11.82;7.70;;;;;;;29.49;53.29;99401.66;4992645;28;20137;-87
2022/08/18 08:01:37;;;;;;;12.50;7.18;;;;;;;29.58;51.33;99398.16;5007964;28;20053;-89
2022/08/18 08:04:28;;;;;;;10.77;6.85;;;;;;;29.72;51.82;99400.72;4992324;28;20073;-89
2022/08/18 08:07:05;;;;;;;10.82;7.15;;;;;;;29.52;51.17;99389.06;4991777;28;20085;-88
2022/08/18 08:10:02;;;;;;;14.68;7.68;;;;;;;29.80;50.64;99404.28;5007708;28;20057;-89
2022/08/18 08:12:50;;;;;;;10.35;7.13;;;;;;;29.67;51.45;99410.28;4990956;28;20109;-89
2022/08/18 08:15:24;;;;;;;13.80;7.68;;;;;;;29.58;51.50;99398.16;4991832;28;20050;-89
2022/08/18 08:18:03;;;;;;;9.25;6.78;;;;;;;29.78;50.72;99404.84;4992361;28;20049;-89
2022/08/18 08:20:35;;;;;;;9.20;6.65;;;;;;;30.04;50.58;99400.63;4975389;28;20046;-91
2022/08/18 08:23:16;;;;;;;9.48;6.90;;;;;;;30.36;50.27;99400.44;4992855;28;20100;-89
2022/08/18 08:26:07;;;;;;;11.13;6.80;;;;;;;30.61;49.47;99396.75;4992360;28;20078;-90
2022/08/18 08:28:39;;;;;;;8.20;6.55;;;;;;;31.08;47.27;99402.00;4990174;28;20046;-91
2022/08/18 08:31:14;;;;;;;9.68;6.60;;;;;;;31.03;46.76;99400.16;4991886;28;20042;-90
2022/08/18 08:33:44;;;;;;;9.85;6.60;;;;;;;30.79;47.04;99406.78;4990756;28;20508;-90
2022/08/18 08:36:20;;;;;;;11.13;7.13;;;;;;;30.68;48.66;99410.94;5006715;28;20055;-91
2022/08/18 08:38:48;;;;;;;10.13;6.65;;;;;;;31.05;48.23;99417.53;4974000;28;20081;-90
2022/08/18 08:41:50;;;;;;;12.77;7.07;;;;;;;31.00;48.18;99424.28;4991332;28;20108;-91
2022/08/18 08:44:24;;;;;;;11.38;6.60;;;;;;;30.78;48.52;99433.91;4991298;28;20109;-90
2022/08/18 08:47:18;;;;;;;14.65;7.20;;;;;;;30.68;49.40;99418.78;4991907;28;20341;-90
2022/08/18 08:49:45;;;;;;;11.70;6.78;;;;;;;31.00;49.17;99415.69;4972773;28;20381;-90
2022/08/18 08:52:22;;;;;;;11.65;6.60;;;;;;;31.39;48.01;99417.38;5005996;28;20048;-91
2022/08/18 08:54:48;;;;;;;10.45;6.68;;;;;;;31.46;48.16;99398.56;5006825;28;20105;-90
2022/08/18 08:57:15;;;;;;;9.35;6.82;;;;;;;31.61;46.59;99406.16;4990880;28;20034;-89
2022/08/18 08:59:43;;;;;;;10.95;7.05;;;;;;;31.14;49.11;99385.28;4990221;28;20046;-88
2022/08/18 09:02:27;;;;;;;12.52;6.50;;;;;;;31.66;48.00;99391.56;5006157;28;20045;-90
2022/08/18 09:05:10;;;;;;;8.88;6.50;;;;;;;31.73;47.45;99375.56;5006367;28;20089;-90
2022/08/18 09:07:59;;;;;;;9.30;6.85;;;;;;;31.62;47.70;99376.91;5006286;28;20530;-90
2022/08/18 09:10:56;;;;;;;10.68;7.15;;;;;;;31.50;47.45;99369.44;4991107;28;20451;-90
2022/08/18 09:13:42;;;;;;;10.90;6.68;;;;;;;31.84;47.55;99357.75;4990689;28;20052;-89
2022/08/18 09:16:16;;;;;;;9.70;6.35;;;;;;;31.84;47.65;99363.50;4991501;28;20046;-92
2022/08/18 09:19:23;;;;;;;12.90;7.20;;;;;;;32.27;46.49;99348.13;5006081;28;20053;-80
2022/08/18 09:21:59;;;;;;;11.90;6.68;;;;;;;32.33;45.76;99344.97;4949559;29;20051;-82
2022/08/18 09:24:45;;;;;;;18.42;6.70;;;;;;;32.55;45.20;99348.72;4949695;29;20720;-82
2022/08/18 09:27:22;;;;;;;9.63;6.63;;;;;;;32.53;45.06;99345.69;4960670;28;20048;-80
2022/08/18 09:29:54;;;;;;;9.35;6.30;;;;;;;32.58;44.59;99344.63;4991028;28;20042;-81
2022/08/18 09:32:19;;;;;;;10.90;6.30;;;;;;;32.53;44.34;99352.19;4990858;28;20054;-81
2022/08/18 09:35:01;;;;;;;12.68;6.70;;;;;;;32.46;43.88;99346.59;4990635;28;20037;-81
2022/08/18 09:37:41;;;;;;;10.77;6.47;;;;;;;32.60;44.17;99341.88;4990240;28;20134;-81
2022/08/18 09:43:38;;;;;;;10.77;6.63;;;;;;;32.59;42.90;99326.03;4975740;28;20053;-80
2022/08/18 09:46:05;;;;;;;9.23;6.70;;;;;;;32.50;43.09;99330.44;4991278;28;20058;-80
2022/08/18 09:48:34;;;;;;;10.38;6.70;;;;;;;32.85;42.68;99319.31;4990861;28;20070;-80
2022/08/18 09:51:17;;;;;;;10.32;6.60;;;;;;;32.92;42.15;99324.13;5005691;28;20439;-81
2022/08/18 09:53:45;;;;;;;9.60;6.47;;;;;;;32.67;42.43;99320.91;4990674;28;20042;-81
2022/08/18 09:56:13;;;;;;;8.85;6.10;;;;;;;32.77;43.31;99321.63;4973480;28;20448;-91
2022/08/18 09:58:53;;;;;;;11.38;6.38;;;;;;;32.61;43.58;99334.81;5006104;28;20411;-89
2022/08/18 10:01:40;;;;;;;9.10;6.88;;;;;;;32.34;44.34;99326.38;4991948;28;20046;-91
2022/08/18 10:04:19;;;;;;;8.65;6.57;;;;;;;32.20;44.78;99325.31;4976744;28;20415;-90
2022/08/18 10:06:46;;;;;;;10.50;6.38;;;;;;;32.66;45.20;99325.13;4994331;28;20054;-91
2022/08/18 10:09:15;;;;;;;9.15;6.18;;;;;;;33.29;42.54;99322.47;5008864;28;20034;-91
2022/08/18 10:11:48;;;;;;;8.90;6.30;;;;;;;33.41;41.45;99316.78;4977257;28;20050;-89
2022/08/18 10:14:59;;;;;;;8.55;5.75;;;;;;;33.64;41.50;99317.00;4976294;28;20054;-89
2022/08/18 10:17:53;;;;;;;11.23;6.28;;;;;;;33.78;40.50;99322.94;4983807;28;20136;-81
2022/08/18 10:20:37;;;;;;;10.52;5.85;;;;;;;33.41;40.53;99319.66;5015141;28;20042;-81
2022/08/18 10:23:04;;;;;;;11.07;6.95;;;;;;;33.45;39.44;99307.69;4968183;28;20120;-81
2022/08/18 10:25:38;;;;;;;10.93;5.65;;;;;;;33.40;39.72;99303.81;4961962;28;20038;-79
2022/08/18 10:28:06;;;;;;;8.50;5.85;;;;;;;33.47;41.10;99302.84;4989809;28;20085;-81
2022/08/18 10:30:32;;;;;;;6.65;5.28;;;;;;;34.01;41.23;99300.03;4993277;28;20038;-81
2022/08/18 10:32:59;;;;;;;10.18;6.20;;;;;;;34.46;40.62;99295.06;4993812;28;20134;-81
2022/08/18 10:35:36;;;;;;;8.98;5.97;;;;;;;34.85;37.69;99295.44;4989402;28;20047;-91
2022/08/18 10:38:09;;;;;;;7.88;5.50;;;;;;;34.77;36.14;99291.28;4976938;28;20535;-91
2022/08/18 10:40:34;;;;;;;10.88;5.50;;;;;;;34.37;34.54;99289.44;4974545;28;20067;-90
2022/08/18 10:43:12;;;;;;;8.45;5.28;;;;;;;34.47;35.65;99290.81;4988174;28;20174;-91
2022/08/18 10:45:47;;;;;;;11.40;5.57;;;;;;;34.14;35.76;99287.94;5015114;28;20514;-90
2022/08/18 10:48:30;;;;;;;9.48;5.13;;;;;;;34.24;35.98;99279.25;5031261;28;20069;-90
2022/08/18 10:51:07;;;;;;;8.95;5.15;;;;;;;34.28;34.95;99285.28;4994638;28;20042;-90
2022/08/18 10:53:37;;;;;;;11.02;4.82;;;;;;;34.02;34.92;99277.75;5014036;28;20092;-81
2022/08/18 10:56:28;;;;;;;9.52;5.25;;;;;;;34.35;35.42;99274.91;4992366;28;20042;-80
2022/08/18 10:59:11;;;;;;;11.43;5.07;;;;;;;34.44;33.66;99280.56;5022568;28;20084;-81
2022/08/18 11:01:49;;;;;;;10.65;5.20;;;;;;;34.05;35.64;99288.06;5028030;28;20388;-81
2022/08/18 11:04:28;;;;;;;7.05;5.10;;;;;;;34.55;33.23;99279.81;5016727;28;20033;-80
2022/08/18 11:07:05;;;;;;;11.75;5.00;;;;;;;34.51;34.11;99267.28;5018776;28;20112;-81
2022/08/18 11:09:31;;;;;;;10.10;5.32;;;;;;;34.69;33.24;99271.38;5005464;28;20037;-79
2022/08/18 11:11:59;;;;;;;7.75;4.53;;;;;;;34.99;32.24;99270.34;4987973;28;20030;-81
2022/08/18 11:14:58;;;;;;;8.77;4.72;;;;;;;35.15;32.37;99264.84;5020370;28;20635;-81
2022/08/18 11:18:08;;;;;;;7.00;4.25;;;;;;;35.23;31.98;99253.06;5021993;28;20196;-81
2022/08/18 11:20:35;;;;;;;11.07;5.13;;;;;;;35.49;31.20;99260.41;4960600;28;20046;-80
2022/08/18 11:23:02;;;;;;;10.20;4.90;;;;;;;35.62;31.04;99253.25;4956648;28;20134;-81
2022/08/18 11:25:31;;;;;;;7.97;4.72;;;;;;;35.56;30.69;99263.03;4988893;28;20050;-81
2022/08/18 11:27:58;;;;;;;10.75;4.78;;;;;;;35.38;31.09;99264.84;5023942;28;20121;-81
2022/08/18 11:30:40;;;;;;;11.70;4.80;;;;;;;35.35;30.74;99271.09;5002861;28;20045;-81
2022/08/18 11:33:06;;;;;;;;;;;;;;;35.36;30.45;99282.00;5036465;28;20042;-90
2022/08/18 11:35:34;;;;;;;11.68;5.03;;;;;;;35.50;31.50;99273.47;5021652;28;19920;-90
2022/08/18 11:38:02;;;;;;;9.90;4.85;;;;;;;35.94;29.92;99284.75;5003797;28;20470;-89
2022/08/18 11:40:33;;;;;;;10.20;4.20;;;;;;;36.20;30.33;99284.78;5020683;28;20034;-90
2022/08/18 11:43:12;;;;;;;10.68;5.15;;;;;;;36.07;29.90;99283.34;5018225;28;20046;-90
2022/08/18 11:45:51;;;;;;;9.57;4.50;;;;;;;35.72;30.94;99280.56;5009980;28;20038;-90
2022/08/18 11:48:38;;;;;;;10.38;4.68;;;;;;;35.81;30.17;99276.78;4997942;28;20088;-88
2022/08/18 11:51:17;;;;;;;8.95;5.10;;;;;;;35.88;30.88;99274.97;4990173;28;20046;-90
2022/08/18 11:54:14;;;;;;;8.95;4.60;;;;;;;36.23;30.37;99286.41;4992952;28;20073;-89
2022/08/18 11:56:40;;;;;;;9.43;5.03;;;;;;;35.99;31.15;99269.16;4989167;28;20050;-90
2022/08/18 11:59:30;;;;;;;8.57;4.53;;;;;;;36.36;30.26;99274.91;4987851;28;20117;-90
2022/08/18 12:01:58;;;;;;;7.68;4.40;;;;;;;36.79;30.29;99277.28;4987561;28;20093;-90
2022/08/18 12:04:38;;;;;;;7.75;4.40;;;;;;;36.60;29.37;99278.41;5010385;28;20036;-89
2022/08/18 12:07:15;;;;;;;9.13;4.90;;;;;;;36.42;30.66;99269.47;5008892;28;20041;-89
2022/08/18 12:10:03;;;;;;;8.05;4.53;;;;;;;36.52;29.99;99268.53;5005497;28;20443;-90
2022/08/18 12:12:31;;;;;;;9.60;4.57;;;;;;;36.82;30.43;99259.41;5004760;28;20045;-89
2022/08/18 12:15:15;;;;;;;8.45;5.10;;;;;;;37.14;29.87;99254.63;4973125;28;20547;-89
2022/08/18 12:17:43;;;;;;;9.32;4.60;;;;;;;37.32;28.96;99254.84;4990695;28;20046;-89
2022/08/18 12:20:09;;;;;;;7.60;4.43;;;;;;;37.30;29.70;99231.59;4972522;28;20104;-88
2022/08/18 12:22:40;;;;;;;11.40;4.70;;;;;;;37.50;28.74;99238.44;5005522;28;20499;-88
2022/08/18 12:25:08;;;;;;;9.25;4.75;;;;;;;37.68;29.58;99230.69;4988557;28;20084;-88
2022/08/18 12:27:33;;;;;;;10.20;4.50;;;;;;;37.89;27.89;99225.91;4989879;28;20124;-81
2022/08/18 12:30:00;;;;;;;11.02;4.72;;;;;;;37.78;28.55;99234.06;4991237;28;20508;-82
2022/08/18 12:32:28;;;;;;;10.38;5.32;;;;;;;37.57;28.75;99237.34;4973643;28;20403;-79
2022/08/18 12:34:53;;;;;;;10.30;4.60;;;;;;;37.46;29.41;99232.41;4990820;28;20034;-79
2022/08/18 12:37:22;;;;;;;10.80;4.50;;;;;;;37.70;28.71;99235.81;4991519;28;20085;-81
2022/08/18 12:39:47;;;;;;;13.48;4.38;;;;;;;37.82;27.86;99245.84;4991891;28;20496;-81
2022/08/18 12:42:14;;;;;;;10.25;5.10;;;;;;;37.82;30.40;99257.44;4978031;28;20038;-81
2022/08/18 12:44:40;;;;;;;11.93;4.90;;;;;;;37.14;29.13;99266.19;5009330;28;20519;-81